Time;durP1;ratioP1;P1;durP2;ratioP2;P2;SDS_P1;SDS_P2;PMS_P1;PMS_P2;Temp;Humidity;BMP_temperature;BMP_pressure;BME280_temperature;BME280_humidity;BME280_pressure;Samples;Min_cycle;Max_cycle;Signal;HPM_P1;HPM_P2
2021/07/20 00:01:36;;;;;;;18.67;12.30;;;;;;;;;;5014704;28;20406;-77
2021/07/20 00:04:02;;;;;;;19.90;13.00;;;;;;;;;;5013099;28;20396;-77
2021/07/20 00:06:28;;;;;;;13.67;10.83;;;;;;;;;;5046180;28;20452;-78
2021/07/20 00:08:54;;;;;;;17.23;12.47;;;;;;;;;;5014675;28;20414;-78
2021/07/20 00:11:20;;;;;;;16.17;11.70;;;;;;;;;;5014203;28;20412;-77
2021/07/20 00:13:46;;;;;;;22.63;12.67;;;;;;;;;;5014716;28;20428;-77
2021/07/20 00:16:13;;;;;;;19.17;11.60;;;;;;;;;;5015073;28;20429;-77
2021/07/20 00:18:39;;;;;;;20.37;11.20;;;;;;;;;;5020362;28;20406;-77
2021/07/20 00:21:09;;;;;;;21.47;11.50;;;;;;;;;;5014376;28;20425;-77
2021/07/20 00:23:35;;;;;;;19.47;12.47;;;;;;;;;;5013956;28;20443;-77
2021/07/20 00:26:19;;;;;;;17.53;11.83;;;;;;;;;;5014127;28;20429;-76
2021/07/20 00:28:57;;;;;;;18.33;12.27;;;;;;;;;;5025401;28;20468;-77
2021/07/20 00:31:56;;;;;;;19.10;11.27;;;;;;;;;;5012059;28;20418;-79
2021/07/20 00:34:22;;;;;;;20.20;12.57;;;;;;;;;;5011821;28;20470;-77
2021/07/20 00:36:48;;;;;;;14.83;11.33;;;;;;;;;;5028379;28;20512;-77
2021/07/20 00:39:15;;;;;;;18.27;12.80;;;;;;;;;;5012052;28;20756;-78
2021/07/20 00:41:46;;;;;;;17.40;11.87;;;;;;;;;;5012083;28;20835;-79
2021/07/20 00:44:12;;;;;;;22.33;12.47;;;;;;;;;;5027886;28;20449;-79
2021/07/20 00:46:38;;;;;;;18.90;11.33;;;;;;;;;;5011696;28;20422;-78
2021/07/20 00:49:12;;;;;;;16.50;12.17;;;;;;;;;;5011668;28;20433;-78
2021/07/20 00:51:42;;;;;;;16.97;12.10;;;;;;;;;;5011335;28;20930;-77
2021/07/20 00:54:08;;;;;;;15.50;12.13;;;;;;;;;;5027521;28;20476;-77
2021/07/20 00:56:34;;;;;;;18.43;11.80;;;;;;;;;;5027830;28;20441;-77
2021/07/20 00:59:01;;;;;;;20.20;12.40;;;;;;;;;;5011678;28;21137;-77
2021/07/20 01:01:27;;;;;;;17.17;11.77;;;;;;;;;;5013597;28;20414;-77
2021/07/20 01:03:53;;;;;;;18.80;11.37;;;;;;;;;;5013344;28;20772;-77
2021/07/20 01:09:30;;;;;;;21.30;10.90;;;;;;;;;;5011389;28;20441;-77
2021/07/20 01:12:00;;;;;;;18.67;12.87;;;;;;;;;;5013734;28;20390;-78
2021/07/20 01:14:26;;;;;;;19.70;13.40;;;;;;;;;;5011859;28;20439;-77
2021/07/20 01:16:52;;;;;;;18.20;12.40;;;;;;;;;;5013410;28;20388;-77
2021/07/20 01:19:24;;;;;;;19.07;12.30;;;;;;;;;;5012178;28;20912;-77
2021/07/20 01:21:53;;;;;;;18.57;12.60;;;;;;;;;;5012490;28;20409;-77
2021/07/20 01:24:22;;;;;;;18.90;12.80;;;;;;;;;;5015773;28;20821;-77
2021/07/20 01:26:48;;;;;;;19.50;12.77;;;;;;;;;;5017399;28;20759;-77
2021/07/20 01:32:26;;;;;;;18.77;12.50;;;;;;;;;;5015100;28;20471;-77
2021/07/20 01:34:55;;;;;;;17.40;11.70;;;;;;;;;;5016849;28;20459;-78
2021/07/20 01:37:22;;;;;;;20.33;11.30;;;;;;;;;;5017012;28;20392;-77
2021/07/20 01:39:48;;;;;;;20.70;12.97;;;;;;;;;;5048883;28;20410;-77
2021/07/20 01:42:15;;;;;;;19.73;12.70;;;;;;;;;;5016103;28;20915;-77
2021/07/20 01:44:42;;;;;;;22.20;12.63;;;;;;;;;;5016761;28;20540;-77
2021/07/20 01:47:13;;;;;;;17.10;12.50;;;;;;;;;;5016954;28;20456;-78
2021/07/20 01:49:54;;;;;;;19.10;11.80;;;;;;;;;;5016845;28;20778;-77
2021/07/20 01:52:20;;;;;;;16.83;11.47;;;;;;;;;;5015223;28;20446;-78
2021/07/20 01:54:49;;;;;;;19.27;12.73;;;;;;;;;;5048083;28;20832;-77
2021/07/20 01:57:16;;;;;;;19.57;12.57;;;;;;;;;;5016757;28;20409;-77
2021/07/20 02:03:34;;;;;;;21.43;12.27;;;;;;;;;;5014354;28;20462;-77
2021/07/20 02:08:43;;;;;;;19.13;12.67;;;;;;;;;;5016842;28;20432;-76
2021/07/20 02:11:13;;;;;;;20.50;12.23;;;;;;;;;;5047785;28;20906;-77
2021/07/20 02:13:46;;;;;;;19.73;12.17;;;;;;;;;;5014671;28;20421;-76
2021/07/20 02:16:16;;;;;;;18.77;13.30;;;;;;;;;;5016482;28;20446;-76
2021/07/20 02:18:52;;;;;;;20.93;12.77;;;;;;;;;;5031772;28;20926;-76
2021/07/20 02:21:19;;;;;;;20.37;12.57;;;;;;;;;;5015236;28;20504;-76
2021/07/20 02:23:46;;;;;;;16.17;11.53;;;;;;;;;;5015960;28;20425;-76
2021/07/20 02:26:13;;;;;;;24.10;12.93;;;;;;;;;;5016240;28;20440;-77
2021/07/20 02:28:40;;;;;;;23.23;12.20;;;;;;;;;;5016374;28;20441;-77
2021/07/20 02:31:06;;;;;;;18.40;11.97;;;;;;;;;;5016399;28;20420;-76
2021/07/20 02:33:33;;;;;;;20.90;12.70;;;;;;;;;;5014305;28;20449;-76
2021/07/20 02:35:59;;;;;;;23.17;12.40;;;;;;;;;;5015939;28;20472;-76
2021/07/20 02:38:25;;;;;;;18.33;12.13;;;;;;;;;;5016341;28;20844;-76
2021/07/20 02:40:55;;;;;;;19.37;12.80;;;;;;;;;;5016175;28;20414;-77
2021/07/20 02:43:21;;;;;;;19.67;12.90;;;;;;;;;;5030841;28;20440;-76
2021/07/20 02:45:47;;;;;;;20.03;13.40;;;;;;;;;;5016039;28;20495;-76
2021/07/20 02:48:15;;;;;;;18.73;12.93;;;;;;;;;;5016072;28;20412;-76
2021/07/20 02:50:41;;;;;;;21.67;12.37;;;;;;;;;;5015983;28;20413;-76
2021/07/20 02:53:10;;;;;;;27.53;16.37;;;;;;;;;;5047370;28;20491;-76
2021/07/20 02:55:39;;;;;;;21.80;14.00;;;;;;;;;;5015762;28;20436;-76
2021/07/20 02:58:05;;;;;;;17.10;13.20;;;;;;;;;;5015602;28;20433;-76
2021/07/20 03:00:32;;;;;;;23.67;13.80;;;;;;;;;;5015733;28;20388;-76
2021/07/20 03:02:58;;;;;;;23.60;14.30;;;;;;;;;;5015678;28;20476;-76
2021/07/20 03:05:24;;;;;;;21.30;14.43;;;;;;;;;;5015612;28;20437;-77
2021/07/20 03:07:52;;;;;;;19.27;12.97;;;;;;;;;;5015504;28;20922;-76
2021/07/20 03:10:19;;;;;;;22.73;13.07;;;;;;;;;;5015440;28;20400;-76
2021/07/20 03:12:47;;;;;;;20.47;13.63;;;;;;;;;;5015188;28;20401;-76
2021/07/20 03:15:14;;;;;;;26.17;13.63;;;;;;;;;;5015720;28;20827;-76
2021/07/20 03:17:40;;;;;;;22.10;12.90;;;;;;;;;;5014370;28;20456;-75
2021/07/20 03:20:07;;;;;;;23.67;13.37;;;;;;;;;;5015242;28;20410;-76
2021/07/20 03:22:34;;;;;;;18.07;12.10;;;;;;;;;;5015176;28;20995;-76
2021/07/20 03:25:01;;;;;;;20.30;12.90;;;;;;;;;;5015104;28;20433;-76
2021/07/20 03:27:31;;;;;;;24.90;13.30;;;;;;;;;;5015248;28;20445;-76
2021/07/20 03:29:57;;;;;;;18.60;11.80;;;;;;;;;;5015332;28;20406;-76
2021/07/20 03:32:25;;;;;;;19.20;12.07;;;;;;;;;;5015106;28;20420;-76
2021/07/20 03:34:52;;;;;;;20.90;13.13;;;;;;;;;;5014911;28;20481;-76
2021/07/20 03:37:19;;;;;;;19.63;12.80;;;;;;;;;;5015274;28;20786;-76
2021/07/20 03:39:45;;;;;;;19.20;13.23;;;;;;;;;;5015778;28;20420;-76
2021/07/20 03:42:11;;;;;;;24.13;12.97;;;;;;;;;;5017567;28;20410;-76
2021/07/20 03:44:38;;;;;;;23.53;12.70;;;;;;;;;;5014324;28;20441;-76
2021/07/20 03:47:04;;;;;;;19.30;13.27;;;;;;;;;;5014832;28;20420;-76
2021/07/20 03:49:30;;;;;;;21.37;12.40;;;;;;;;;;5015002;28;20429;-76
2021/07/20 03:51:58;;;;;;;20.53;13.50;;;;;;;;;;5014835;28;20417;-79
2021/07/20 03:54:24;;;;;;;27.70;12.93;;;;;;;;;;5013121;28;20471;-76
2021/07/20 03:56:50;;;;;;;17.93;12.57;;;;;;;;;;5046478;28;20410;-76
2021/07/20 03:59:18;;;;;;;23.33;13.37;;;;;;;;;;5014541;28;20771;-75
2021/07/20 04:01:45;;;;;;;20.40;13.90;;;;;;;;;;5014472;28;20800;-75
2021/07/20 04:04:14;;;;;;;25.53;13.40;;;;;;;;;;5014364;28;20434;-76
2021/07/20 04:06:40;;;;;;;20.23;12.47;;;;;;;;;;5014608;28;20949;-75
2021/07/20 04:09:07;;;;;;;19.97;12.30;;;;;;;;;;5014479;28;20414;-75
2021/07/20 04:11:35;;;;;;;20.87;13.47;;;;;;;;;;5014481;28;20410;-75
2021/07/20 04:14:01;;;;;;;24.47;13.73;;;;;;;;;;5013955;28;20452;-75
2021/07/20 04:16:27;;;;;;;20.93;13.93;;;;;;;;;;5014285;28;20413;-75
2021/07/20 04:18:53;;;;;;;23.13;14.07;;;;;;;;;;5046064;28;20410;-75
2021/07/20 04:21:20;;;;;;;22.03;12.80;;;;;;;;;;5014322;28;20409;-75
2021/07/20 04:23:46;;;;;;;20.43;13.00;;;;;;;;;;5014116;28;20495;-76
2021/07/20 04:26:13;;;;;;;20.73;13.23;;;;;;;;;;5014366;28;20422;-77
2021/07/20 04:28:39;;;;;;;23.43;13.33;;;;;;;;;;5014406;28;20413;-76
2021/07/20 04:31:07;;;;;;;18.20;13.40;;;;;;;;;;5013098;28;20393;-76
2021/07/20 04:33:33;;;;;;;25.67;14.57;;;;;;;;;;5045536;28;20910;-76
2021/07/20 04:36:00;;;;;;;21.60;12.20;;;;;;;;;;5013732;28;20559;-76
2021/07/20 04:38:28;;;;;;;19.57;12.93;;;;;;;;;;5014065;28;20736;-75
2021/07/20 04:40:54;;;;;;;26.63;13.63;;;;;;;;;;5014028;28;20413;-75
2021/07/20 04:43:21;;;;;;;22.57;13.90;;;;;;;;;;5013873;28;20418;-75
2021/07/20 04:45:49;;;;;;;20.60;13.23;;;;;;;;;;5013609;28;20780;-75
2021/07/20 04:48:16;;;;;;;24.40;14.70;;;;;;;;;;5013689;28;20420;-75
2021/07/20 04:50:42;;;;;;;26.97;14.10;;;;;;;;;;5013767;28;20808;-75
2021/07/20 04:53:09;;;;;;;23.93;13.83;;;;;;;;;;5013561;28;20417;-75
2021/07/20 04:55:36;;;;;;;29.30;14.47;;;;;;;;;;5013506;28;20477;-74
2021/07/20 04:58:03;;;;;;;25.97;15.10;;;;;;;;;;5012703;28;20407;-75
2021/07/20 05:00:29;;;;;;;32.57;14.67;;;;;;;;;;5012281;28;20414;-75
2021/07/20 05:02:56;;;;;;;31.30;14.60;;;;;;;;;;5013177;28;20435;-75
2021/07/20 05:05:24;;;;;;;31.47;15.70;;;;;;;;;;5012283;28;20445;-74
2021/07/20 05:07:51;;;;;;;29.20;15.03;;;;;;;;;;5013545;28;20414;-75
2021/07/20 05:10:18;;;;;;;31.37;15.90;;;;;;;;;;5013523;28;20410;-75
2021/07/20 05:12:44;;;;;;;28.63;14.90;;;;;;;;;;5013388;28;20410;-76
2021/07/20 05:15:13;;;;;;;21.40;14.17;;;;;;;;;;5013245;28;20920;-75
2021/07/20 05:17:40;;;;;;;27.60;14.97;;;;;;;;;;5013363;28;20412;-75
2021/07/20 05:20:07;;;;;;;33.30;16.37;;;;;;;;;;5013374;28;20409;-75
2021/07/20 05:22:35;;;;;;;26.27;15.43;;;;;;;;;;5013279;28;20829;-79
2021/07/20 05:25:05;;;;;;;31.57;15.10;;;;;;;;;;5012947;28;20445;-76
2021/07/20 05:27:38;;;;;;;28.83;15.17;;;;;;;;;;5013318;28;20454;-75
2021/07/20 05:30:04;;;;;;;30.97;16.20;;;;;;;;;;5013284;28;20445;-75
2021/07/20 05:32:32;;;;;;;28.77;14.70;;;;;;;;;;5013245;28;20421;-75
2021/07/20 05:34:58;;;;;;;32.97;16.57;;;;;;;;;;5012839;28;20527;-76
2021/07/20 05:37:24;;;;;;;36.90;18.50;;;;;;;;;;5013142;28;20402;-77
2021/07/20 05:39:50;;;;;;;28.03;15.70;;;;;;;;;;5013376;28;20838;-75
2021/07/20 05:42:20;;;;;;;33.80;16.40;;;;;;;;;;5013342;28;20406;-75
2021/07/20 05:44:47;;;;;;;33.07;16.80;;;;;;;;;;5012838;28;20408;-75
2021/07/20 05:47:15;;;;;;;35.00;16.40;;;;;;;;;;5012905;28;20778;-76
2021/07/20 05:49:41;;;;;;;44.07;16.20;;;;;;;;;;5013121;28;20492;-75
2021/07/20 05:52:07;;;;;;;32.33;17.47;;;;;;;;;;5013229;28;20916;-75
2021/07/20 05:54:35;;;;;;;36.70;17.47;;;;;;;;;;5012622;28;20465;-75
2021/07/20 05:57:01;;;;;;;32.27;15.80;;;;;;;;;;5013024;28;20435;-76
2021/07/20 05:59:27;;;;;;;36.77;16.57;;;;;;;;;;5012798;28;20437;-75
2021/07/20 06:01:54;;;;;;;37.57;17.50;;;;;;;;;;5012944;28;20406;-75
2021/07/20 06:04:20;;;;;;;31.37;17.87;;;;;;;;;;5012653;28;20416;-75
2021/07/20 06:06:48;;;;;;;38.53;18.60;;;;;;;;;;5012912;28;20513;-75
2021/07/20 06:09:16;;;;;;;40.57;18.57;;;;;;;;;;5015012;28;20395;-75
2021/07/20 06:11:42;;;;;;;33.37;19.30;;;;;;;;;;5016536;28;20507;-76
2021/07/20 06:14:09;;;;;;;41.87;20.20;;;;;;;;;;5016268;28;20436;-76
2021/07/20 06:16:36;;;;;;;38.27;18.03;;;;;;;;;;5016540;28;20417;-76
2021/07/20 06:19:02;;;;;;;35.60;19.00;;;;;;;;;;5016532;28;20464;-76
2021/07/20 06:21:58;;;;;;;35.20;18.43;;;;;;;;;;5016562;28;20440;-76
2021/07/20 06:24:24;;;;;;;36.77;17.70;;;;;;;;;;5014657;28;20810;-76
2021/07/20 06:26:50;;;;;;;30.27;17.03;;;;;;;;;;5016333;28;20510;-76
2021/07/20 06:29:17;;;;;;;42.37;20.30;;;;;;;;;;5016339;28;20895;-76
2021/07/20 06:31:44;;;;;;;31.77;18.60;;;;;;;;;;5016199;28;20513;-76
2021/07/20 06:34:13;;;;;;;30.83;18.83;;;;;;;;;;5015796;28;20570;-76
2021/07/20 06:36:42;;;;;;;30.50;17.47;;;;;;;;;;5016130;28;20493;-76
2021/07/20 06:39:08;;;;;;;41.77;21.53;;;;;;;;;;5016246;28;20389;-76
2021/07/20 06:41:35;;;;;;;28.60;17.33;;;;;;;;;;5016053;28;20468;-77
2021/07/20 06:44:01;;;;;;;34.03;18.80;;;;;;;;;;5015724;28;20746;-76
2021/07/20 06:46:29;;;;;;;33.37;20.00;;;;;;;;;;5016293;28;20421;-76
2021/07/20 06:48:55;;;;;;;31.40;19.40;;;;;;;;;;5016149;28;20380;-77
2021/07/20 06:51:22;;;;;;;30.57;17.33;;;;;;;;;;5016060;28;20742;-75
2021/07/20 06:53:48;;;;;;;36.67;17.97;;;;;;;;;;5015437;28;20975;-76
2021/07/20 06:56:21;;;;;;;32.03;16.27;;;;;;;;;;5015719;28;20446;-76
2021/07/20 06:58:47;;;;;;;26.70;16.87;;;;;;;;;;5015739;28;20404;-76
2021/07/20 07:01:15;;;;;;;31.50;18.17;;;;;;;;;;5015645;28;20479;-76
2021/07/20 07:03:46;;;;;;;32.07;18.57;;;;;;;;;;5015289;28;20389;-77
2021/07/20 07:06:13;;;;;;;33.20;19.73;;;;;;;;;;5015469;28;20412;-76
2021/07/20 07:08:40;;;;;;;29.10;18.50;;;;;;;;;;5015482;28;20396;-76
2021/07/20 07:11:07;;;;;;;36.53;19.57;;;;;;;;;;5015585;28;20550;-76
2021/07/20 07:13:34;;;;;;;35.40;18.60;;;;;;;;;;5015111;28;20388;-76
2021/07/20 07:16:01;;;;;;;25.93;17.13;;;;;;;;;;5015136;28;20475;-76
2021/07/20 07:18:28;;;;;;;39.97;18.53;;;;;;;;;;5015307;28;20384;-76
2021/07/20 07:20:55;;;;;;;35.37;19.13;;;;;;;;;;5014318;28;20412;-76
2021/07/20 07:23:22;;;;;;;36.13;18.87;;;;;;;;;;5013585;28;20905;-76
2021/07/20 07:25:52;;;;;;;31.00;18.93;;;;;;;;;;5015071;28;20466;-75
2021/07/20 07:28:20;;;;;;;30.03;18.10;;;;;;;;;;5013909;28;20425;-76
2021/07/20 07:30:48;;;;;;;38.60;18.90;;;;;;;;;;5015105;28;20389;-76
2021/07/20 07:33:14;;;;;;;30.80;17.43;;;;;;;;;;5014784;28;20484;-76
2021/07/20 07:35:40;;;;;;;26.57;17.13;;;;;;;;;;5013640;28;20505;-76
2021/07/20 07:38:06;;;;;;;33.53;18.60;;;;;;;;;;5015162;28;20414;-77
2021/07/20 07:40:33;;;;;;;29.27;18.53;;;;;;;;;;5046632;28;20452;-76
2021/07/20 07:43:01;;;;;;;29.93;17.30;;;;;;;;;;5014769;28;20431;-76
2021/07/20 07:45:28;;;;;;;29.77;16.80;;;;;;;;;;5014841;28;20424;-76
2021/07/20 07:47:54;;;;;;;28.00;17.37;;;;;;;;;;5014854;28;20387;-77
2021/07/20 07:50:20;;;;;;;28.37;16.13;;;;;;;;;;5014654;28;20384;-77
2021/07/20 07:52:46;;;;;;;30.93;15.40;;;;;;;;;;5014402;28;20410;-77
2021/07/20 07:57:48;;;;;;;30.40;15.07;;;;;;;;;;5319646;22;20438;-77
2021/07/20 08:00:15;;;;;;;26.57;16.37;;;;;;;;;;5054040;28;20509;-80
2021/07/20 08:02:43;;;;;;;24.90;15.33;;;;;;;;;;5054225;28;20408;-76
2021/07/20 08:05:10;;;;;;;27.17;13.93;;;;;;;;;;5054040;28;20448;-78
2021/07/20 08:07:38;;;;;;;24.40;14.10;;;;;;;;;;5053959;28;20835;-78
2021/07/20 08:10:04;;;;;;;21.40;14.43;;;;;;;;;;5054053;28;20394;-77
2021/07/20 08:12:31;;;;;;;21.63;14.47;;;;;;;;;;5053849;28;20404;-78
2021/07/20 08:14:58;;;;;;;26.10;16.17;;;;;;;;;;5053682;28;20447;-78
2021/07/20 08:17:26;;;;;;;27.07;14.00;;;;;;;;;;5035884;28;20799;-77
2021/07/20 08:19:53;;;;;;;26.20;14.60;;;;;;;;;;5053931;28;20386;-78
2021/07/20 08:22:19;;;;;;;24.23;12.87;;;;;;;;;;5053817;28;20473;-77
2021/07/20 08:25:12;;;;;;;21.73;12.80;;;;;;;;;;5053365;28;20424;-78
2021/07/20 08:27:46;;;;;;;19.17;13.47;;;;;;;;;;5037887;28;20435;-77
2021/07/20 08:30:12;;;;;;;22.93;13.80;;;;;;;;;;5053902;28;20905;-77
2021/07/20 08:32:51;;;;;;;20.23;13.30;;;;;;;;;;5053372;28;20409;-78
2021/07/20 08:35:19;;;;;;;20.83;13.67;;;;;;;;;;5052217;28;21049;-79
2021/07/20 08:37:46;;;;;;;24.03;13.20;;;;;;;;;;5053773;28;20407;-77
2021/07/20 08:40:22;;;;;;;18.17;12.60;;;;;;;;;;5053634;28;20408;-77
2021/07/20 08:43:07;;;;;;;17.90;11.97;;;;;;;;;;5053142;28;20491;-77
2021/07/20 08:45:36;;;;;;;17.57;11.83;;;;;;;;;;5053300;28;20778;-78
2021/07/20 08:48:02;;;;;;;21.93;12.50;;;;;;;;;;5053587;28;20901;-78
2021/07/20 08:50:35;;;;;;;17.40;12.30;;;;;;;;;;5053481;28;20404;-78
2021/07/20 08:53:18;;;;;;;19.40;13.37;;;;;;;;;;5053503;28;20491;-77
2021/07/20 08:55:53;;;;;;;18.60;12.53;;;;;;;;;;5053174;28;20471;-77
2021/07/20 08:58:27;;;;;;;16.87;11.20;;;;;;;;;;5053157;28;20435;-79
2021/07/20 09:00:56;;;;;;;18.43;12.27;;;;;;;;;;5053104;28;20827;-77
2021/07/20 09:03:25;;;;;;;16.77;11.73;;;;;;;;;;5052871;28;20411;-77
2021/07/20 09:06:03;;;;;;;16.10;11.27;;;;;;;;;;5051882;28;20447;-77
2021/07/20 09:08:41;;;;;;;21.77;11.50;;;;;;;;;;5052907;28;20446;-78
2021/07/20 09:11:15;;;;;;;20.63;11.03;;;;;;;;;;5052438;28;20439;-78
2021/07/20 09:13:47;;;;;;;14.60;11.73;;;;;;;;;;5052275;28;20430;-78
2021/07/20 09:16:21;;;;;;;17.50;12.13;;;;;;;;;;5052555;28;20467;-77
2021/07/20 09:18:50;;;;;;;19.53;11.10;;;;;;;;;;5052528;28;20404;-77
2021/07/20 09:21:17;;;;;;;16.13;11.67;;;;;;;;;;5052635;28;20751;-76
2021/07/20 09:23:49;;;;;;;18.60;11.43;;;;;;;;;;5052329;28;20458;-77
2021/07/20 09:26:17;;;;;;;14.47;10.33;;;;;;;;;;5051456;28;20415;-77
2021/07/20 09:28:43;;;;;;;14.57;11.20;;;;;;;;;;5051380;28;20939;-77
2021/07/20 09:31:32;;;;;;;23.63;12.10;;;;;;;;;;5052494;28;20412;-77
2021/07/20 09:34:11;;;;;;;13.73;10.23;;;;;;;;;;5046759;28;20812;-77
2021/07/20 09:36:55;;;;;;;18.33;11.17;;;;;;;;;;5051643;28;20419;-77
2021/07/20 09:39:42;;;;;;;18.33;12.20;;;;;;;;;;5053088;28;20386;-77
2021/07/20 09:42:27;;;;;;;16.53;11.07;;;;;;;;;;5021588;28;20396;-77
2021/07/20 09:45:02;;;;;;;15.43;10.23;;;;;;;;;;5055815;28;20443;-77
2021/07/20 09:47:40;;;;;;;17.43;11.37;;;;;;;;;;5056686;28;20412;-77
2021/07/20 09:50:08;;;;;;;16.97;11.43;;;;;;;;;;5056859;28;20832;-77
2021/07/20 09:52:37;;;;;;;16.13;9.90;;;;;;;;;;5055432;28;20427;-77
2021/07/20 09:55:23;;;;;;;17.20;10.87;;;;;;;;;;5056415;28;20962;-78
2021/07/20 09:57:54;;;;;;;16.23;10.53;;;;;;;;;;5056554;28;20424;-78
2021/07/20 10:00:26;;;;;;;16.00;11.17;;;;;;;;;;5056514;28;20434;-79
2021/07/20 10:03:11;;;;;;;12.70;10.00;;;;;;;;;;5056088;28;20408;-77
2021/07/20 10:05:56;;;;;;;14.53;11.00;;;;;;;;;;5056232;28;20469;-77
2021/07/20 10:08:48;;;;;;;14.60;10.50;;;;;;;;;;5056449;28;20427;-78
2021/07/20 10:11:23;;;;;;;13.97;9.60;;;;;;;;;;5040307;28;20439;-77
2021/07/20 10:13:55;;;;;;;15.07;11.20;;;;;;;;;;5055959;28;20486;-79
2021/07/20 10:16:49;;;;;;;10.30;8.63;;;;;;;;;;5056214;28;20424;-77
2021/07/20 10:19:38;;;;;;;12.67;9.90;;;;;;;;;;5055884;28;20407;-77
2021/07/20 10:22:05;;;;;;;12.07;9.90;;;;;;;;;;5027907;28;20412;-78
2021/07/20 10:24:35;;;;;;;11.17;9.97;;;;;;;;;;5055693;28;20423;-78
2021/07/20 10:27:04;;;;;;;12.67;10.70;;;;;;;;;;5056079;28;20396;-78
2021/07/20 10:29:40;;;;;;;13.97;11.23;;;;;;;;;;5056058;28;20404;-78
2021/07/20 10:32:09;;;;;;;17.57;12.03;;;;;;;;;;5054730;28;20790;-78
2021/07/20 10:34:41;;;;;;;16.30;12.13;;;;;;;;;;5055531;28;20451;-77
2021/07/20 10:37:10;;;;;;;15.33;9.90;;;;;;;;;;5056099;28;20900;-78
2021/07/20 10:39:38;;;;;;;17.63;11.63;;;;;;;;;;5055659;28;20414;-77
2021/07/20 10:42:33;;;;;;;14.07;12.17;;;;;;;;;;5055906;28;20437;-77
2021/07/20 10:45:07;;;;;;;12.97;10.97;;;;;;;;;;5046426;28;20528;-77
2021/07/20 10:47:36;;;;;;;13.87;11.40;;;;;;;;;;5054264;28;20420;-77
2021/07/20 10:50:06;;;;;;;15.03;11.73;;;;;;;;;;5055654;28;20408;-77
2021/07/20 10:52:51;;;;;;;13.53;10.83;;;;;;;;;;5055585;28;20925;-77
2021/07/20 10:55:23;;;;;;;12.40;10.17;;;;;;;;;;5052833;28;20464;-78
2021/07/20 10:58:00;;;;;;;13.50;9.70;;;;;;;;;;5055461;28;20431;-79
2021/07/20 11:00:29;;;;;;;10.73;9.63;;;;;;;;;;5055385;28;20495;-78
2021/07/20 11:03:14;;;;;;;13.90;11.13;;;;;;;;;;5055147;28;20771;-77
2021/07/20 11:05:44;;;;;;;15.70;10.67;;;;;;;;;;5055191;28;20424;-77
2021/07/20 11:08:11;;;;;;;13.53;11.00;;;;;;;;;;5055440;28;20404;-77
2021/07/20 11:11:06;;;;;;;17.37;12.60;;;;;;;;;;5055181;28;20462;-77
2021/07/20 11:13:34;;;;;;;14.27;10.27;;;;;;;;;;5046396;28;20424;-77
2021/07/20 11:16:02;;;;;;;12.80;10.20;;;;;;;;;;5054904;28;20491;-77
2021/07/20 11:18:32;;;;;;;12.50;11.20;;;;;;;;;;5053724;28;20420;-77
2021/07/20 11:21:01;;;;;;;14.27;10.43;;;;;;;;;;5053985;28;20470;-77
2021/07/20 11:23:27;;;;;;;12.23;10.80;;;;;;;;;;5054538;28;20438;-77
2021/07/20 11:25:54;;;;;;;12.20;10.77;;;;;;;;;;5054643;28;20443;-77
2021/07/20 11:28:21;;;;;;;12.10;9.90;;;;;;;;;;5054847;28;20792;-77
2021/07/20 11:30:49;;;;;;;15.10;11.60;;;;;;;;;;5054852;28;20416;-77
2021/07/20 11:33:21;;;;;;;15.67;9.87;;;;;;;;;;5053338;28;20412;-78
2021/07/20 11:35:50;;;;;;;13.37;8.90;;;;;;;;;;5053209;28;21059;-77
2021/07/20 11:38:19;;;;;;;12.03;8.97;;;;;;;;;;5054702;28;20427;-78
2021/07/20 11:41:06;;;;;;;15.10;10.03;;;;;;;;;;5055139;28;20438;-78
2021/07/20 11:43:37;;;;;;;10.33;9.30;;;;;;;;;;5054273;28;20458;-79
2021/07/20 11:46:05;;;;;;;11.40;10.00;;;;;;;;;;5054449;28;20428;-80
2021/07/20 11:48:37;;;;;;;13.57;9.70;;;;;;;;;;5054637;28;20412;-79
2021/07/20 11:51:11;;;;;;;15.97;11.20;;;;;;;;;;5054706;28;20400;-78
2021/07/20 11:53:50;;;;;;;13.40;10.50;;;;;;;;;;5054208;28;20529;-78
2021/07/20 11:56:22;;;;;;;12.83;10.70;;;;;;;;;;5054069;28;20474;-78
2021/07/20 11:59:07;;;;;;;13.70;10.83;;;;;;;;;;5052926;28;20423;-78
2021/07/20 12:01:52;;;;;;;12.57;9.67;;;;;;;;;;5054181;28;20495;-78
2021/07/20 12:04:17;;;;;;;11.13;9.30;;;;;;;;;;5053756;28;20467;-78
2021/07/20 12:06:57;;;;;;;11.40;9.00;;;;;;;;;;5053645;28;21079;-78
2021/07/20 12:09:42;;;;;;;11.23;8.50;;;;;;;;;;5054232;28;20404;-78
2021/07/20 12:12:08;;;;;;;11.97;8.90;;;;;;;;;;5052605;28;20956;-78
2021/07/20 12:14:34;;;;;;;12.20;9.57;;;;;;;;;;5052236;28;20467;-78
2021/07/20 12:17:01;;;;;;;11.20;9.83;;;;;;;;;;5053995;28;20432;-78
2021/07/20 12:19:35;;;;;;;12.87;11.17;;;;;;;;;;5052758;28;20765;-78
2021/07/20 12:22:04;;;;;;;13.60;9.73;;;;;;;;;;5053778;28;20440;-79
2021/07/20 12:24:31;;;;;;;10.67;9.57;;;;;;;;;;5053207;28;20488;-77
2021/07/20 12:26:57;;;;;;;11.20;10.00;;;;;;;;;;5053803;28;20412;-78
2021/07/20 12:29:23;;;;;;;11.60;10.33;;;;;;;;;;5053662;28;20412;-77
2021/07/20 12:31:49;;;;;;;10.67;8.70;;;;;;;;;;5053517;28;20901;-78
2021/07/20 12:34:16;;;;;;;9.93;8.20;;;;;;;;;;5052658;28;20451;-80
2021/07/20 12:36:44;;;;;;;10.40;8.93;;;;;;;;;;5053730;28;20400;-78
2021/07/20 12:39:13;;;;;;;11.73;10.10;;;;;;;;;;5053803;28;20402;-78
2021/07/20 12:41:42;;;;;;;9.97;8.80;;;;;;;;;;5052212;28;21022;-78
2021/07/20 12:44:08;;;;;;;13.63;8.90;;;;;;;;;;5053113;28;20404;-78
2021/07/20 12:46:36;;;;;;;12.83;9.50;;;;;;;;;;5053416;28;20873;-78
2021/07/20 12:49:03;;;;;;;11.97;9.10;;;;;;;;;;5053425;28;20408;-78
2021/07/20 12:51:30;;;;;;;11.33;9.10;;;;;;;;;;5053399;28;20412;-78
2021/07/20 12:53:56;;;;;;;10.07;7.57;;;;;;;;;;5051765;28;21005;-78
2021/07/20 12:56:23;;;;;;;12.93;9.20;;;;;;;;;;5053104;28;20823;-78
2021/07/20 12:58:50;;;;;;;12.00;9.00;;;;;;;;;;5053386;28;20915;-78
2021/07/20 13:01:16;;;;;;;13.50;9.37;;;;;;;;;;5052127;28;20481;-78
2021/07/20 13:03:45;;;;;;;12.93;8.40;;;;;;;;;;5053017;28;20959;-78
2021/07/20 13:06:14;;;;;;;10.83;8.20;;;;;;;;;;5051934;28;20432;-78
2021/07/20 13:08:41;;;;;;;9.70;8.00;;;;;;;;;;5052988;28;20411;-78
2021/07/20 13:11:07;;;;;;;8.83;7.50;;;;;;;;;;5053113;28;20435;-78
2021/07/20 13:13:33;;;;;;;13.13;8.50;;;;;;;;;;5052642;28;20902;-78
2021/07/20 13:15:59;;;;;;;11.20;8.87;;;;;;;;;;5053034;28;20475;-78
2021/07/20 13:18:27;;;;;;;10.90;8.90;;;;;;;;;;5052151;28;20776;-78
2021/07/20 13:20:59;;;;;;;9.87;7.77;;;;;;;;;;5052892;28;20554;-78
2021/07/20 13:23:26;;;;;;;10.40;8.43;;;;;;;;;;5052955;28;20400;-78
2021/07/20 13:25:53;;;;;;;9.00;7.60;;;;;;;;;;5052866;28;20519;-79
2021/07/20 13:28:20;;;;;;;10.40;7.90;;;;;;;;;;5053209;28;20412;-78
2021/07/20 13:30:56;;;;;;;10.23;8.43;;;;;;;;;;5052718;28;20487;-79
2021/07/20 13:33:23;;;;;;;10.07;8.27;;;;;;;;;;5051330;28;20412;-78
2021/07/20 13:35:49;;;;;;;12.00;9.20;;;;;;;;;;5052833;28;20540;-78
2021/07/20 13:38:16;;;;;;;10.57;7.13;;;;;;;;;;5052869;28;20848;-78
2021/07/20 13:40:42;;;;;;;9.97;7.90;;;;;;;;;;5052867;28;20410;-78
2021/07/20 13:43:08;;;;;;;14.43;8.50;;;;;;;;;;5052414;28;20412;-78
2021/07/20 13:45:36;;;;;;;10.00;8.20;;;;;;;;;;5051501;28;20863;-78
2021/07/20 13:48:05;;;;;;;7.40;6.67;;;;;;;;;;5051851;28;20481;-78
2021/07/20 13:50:34;;;;;;;17.40;8.50;;;;;;;;;;5053004;28;20447;-78
2021/07/20 13:53:02;;;;;;;9.70;8.07;;;;;;;;;;5051209;28;20419;-78
2021/07/20 13:55:30;;;;;;;9.43;7.63;;;;;;;;;;5051313;28;20474;-78
2021/07/20 13:57:59;;;;;;;8.73;7.83;;;;;;;;;;5051142;28;20573;-78
2021/07/20 14:00:26;;;;;;;8.43;7.53;;;;;;;;;;5051519;28;20707;-78
2021/07/20 14:02:55;;;;;;;11.00;8.67;;;;;;;;;;5052286;28;20408;-79
2021/07/20 14:05:21;;;;;;;14.10;8.13;;;;;;;;;;5051276;28;20442;-78
2021/07/20 14:07:50;;;;;;;10.37;8.90;;;;;;;;;;5052626;28;20442;-78
2021/07/20 14:10:19;;;;;;;8.53;7.30;;;;;;;;;;5051466;28;20412;-78
2021/07/20 14:12:47;;;;;;;11.13;7.77;;;;;;;;;;5035075;28;20416;-80
2021/07/20 14:15:15;;;;;;;10.50;7.37;;;;;;;;;;5052265;28;20475;-78
2021/07/20 14:17:42;;;;;;;9.67;7.23;;;;;;;;;;5051184;28;20792;-78
2021/07/20 14:20:11;;;;;;;10.33;7.73;;;;;;;;;;5052564;28;20450;-78
2021/07/20 14:22:38;;;;;;;11.90;7.67;;;;;;;;;;5051133;28;20408;-78
2021/07/20 14:25:04;;;;;;;15.50;7.67;;;;;;;;;;5051869;28;20544;-79
2021/07/20 14:27:31;;;;;;;7.63;6.83;;;;;;;;;;5052316;28;20419;-78
2021/07/20 14:29:57;;;;;;;10.57;7.77;;;;;;;;;;5054018;28;20448;-78
2021/07/20 14:32:24;;;;;;;10.00;7.63;;;;;;;;;;5054699;28;20427;-79
2021/07/20 14:34:50;;;;;;;8.73;6.63;;;;;;;;;;5055421;28;20451;-78
2021/07/20 14:37:31;;;;;;;7.77;6.57;;;;;;;;;;5054412;28;20779;-78
2021/07/20 14:39:57;;;;;;;9.87;7.50;;;;;;;;;;5054845;28;20464;-78
2021/07/20 14:42:25;;;;;;;8.97;8.07;;;;;;;;;;5055952;28;20498;-78
2021/07/20 14:44:51;;;;;;;11.30;7.10;;;;;;;;;;5054056;28;20504;-78
2021/07/20 14:47:32;;;;;;;10.67;7.80;;;;;;;;;;5055735;28;20782;-79
2021/07/20 14:50:10;;;;;;;7.90;6.27;;;;;;;;;;5055745;28;20438;-79